sensor_id;sensor_type;location;lat;lon;timestamp;temperature;humidity
59007;DHT22;44792;52.760;6.726;2024-03-06T00:02:23;6.40;99.90
59007;DHT22;44792;52.760;6.726;2024-03-06T00:04:48;6.30;99.90
59007;DHT22;44792;52.760;6.726;2024-03-06T00:07:14;6.40;99.90
59007;DHT22;44792;52.760;6.726;2024-03-06T00:09:40;6.40;99.90
59007;DHT22;44792;52.760;6.726;2024-03-06T00:12:05;6.30;99.90
59007;DHT22;44792;52.760;6.726;2024-03-06T00:14:32;6.30;99.90
59007;DHT22;44792;52.760;6.726;2024-03-06T00:16:57;6.30;99.90
59007;DHT22;44792;52.760;6.726;2024-03-06T00:19:23;6.30;99.90
59007;DHT22;44792;52.760;6.726;2024-03-06T00:21:49;6.20;99.90
59007;DHT22;44792;52.760;6.726;2024-03-06T00:24:15;6.20;99.90
59007;DHT22;44792;52.760;6.726;2024-03-06T00:26:41;6.10;99.90
59007;DHT22;44792;52.760;6.726;2024-03-06T00:29:08;6.20;99.90
59007;DHT22;44792;52.760;6.726;2024-03-06T00:31:34;6.00;99.90
59007;DHT22;44792;52.760;6.726;2024-03-06T00:34:00;6.00;99.90
59007;DHT22;44792;52.760;6.726;2024-03-06T00:36:25;6.00;99.90
59007;DHT22;44792;52.760;6.726;2024-03-06T00:38:51;6.10;99.90
59007;DHT22;44792;52.760;6.726;2024-03-06T00:41:17;6.00;99.90
59007;DHT22;44792;52.760;6.726;2024-03-06T00:43:43;6.00;99.90
59007;DHT22;44792;52.760;6.726;2024-03-06T00:46:09;6.00;99.90
59007;DHT22;44792;52.760;6.726;2024-03-06T00:48:34;6.00;99.90
59007;DHT22;44792;52.760;6.726;2024-03-06T00:51:00;6.00;99.90
59007;DHT22;44792;52.760;6.726;2024-03-06T00:53:26;5.90;99.90
59007;DHT22;44792;52.760;6.726;2024-03-06T00:55:51;6.00;99.90
59007;DHT22;44792;52.760;6.726;2024-03-06T00:58:17;6.00;99.90
59007;DHT22;44792;52.760;6.726;2024-03-06T01:00:43;6.00;99.90
59007;DHT22;44792;52.760;6.726;2024-03-06T01:03:08;6.00;99.90
59007;DHT22;44792;52.760;6.726;2024-03-06T01:05:34;6.10;99.90
59007;DHT22;44792;52.760;6.726;2024-03-06T01:08:00;6.00;99.90
59007;DHT22;44792;52.760;6.726;2024-03-06T01:10:25;6.00;99.90
59007;DHT22;44792;52.760;6.726;2024-03-06T01:12:51;6.00;99.90
59007;DHT22;44792;52.760;6.726;2024-03-06T01:15:17;6.00;99.90
59007;DHT22;44792;52.760;6.726;2024-03-06T01:17:43;6.10;99.90
59007;DHT22;44792;52.760;6.726;2024-03-06T01:20:09;6.10;99.90
59007;DHT22;44792;52.760;6.726;2024-03-06T01:22:35;6.00;99.90
59007;DHT22;44792;52.760;6.726;2024-03-06T01:25:01;6.10;99.90
59007;DHT22;44792;52.760;6.726;2024-03-06T01:27:27;6.10;99.90
59007;DHT22;44792;52.760;6.726;2024-03-06T01:29:53;6.10;99.90
59007;DHT22;44792;52.760;6.726;2024-03-06T01:32:19;6.00;99.90
59007;DHT22;44792;52.760;6.726;2024-03-06T01:34:44;6.10;99.90
59007;DHT22;44792;52.760;6.726;2024-03-06T01:37:10;6.00;99.90
59007;DHT22;44792;52.760;6.726;2024-03-06T01:39:36;6.10;99.90
59007;DHT22;44792;52.760;6.726;2024-03-06T01:42:02;6.00;99.90
59007;DHT22;44792;52.760;6.726;2024-03-06T01:44:29;6.00;99.90
59007;DHT22;44792;52.760;6.726;2024-03-06T01:46:55;6.00;99.90
59007;DHT22;44792;52.760;6.726;2024-03-06T01:49:21;6.00;99.90
59007;DHT22;44792;52.760;6.726;2024-03-06T01:51:51;5.90;99.90
59007;DHT22;44792;52.760;6.726;2024-03-06T01:54:17;5.90;99.90
59007;DHT22;44792;52.760;6.726;2024-03-06T01:56:45;5.90;99.90
59007;DHT22;44792;52.760;6.726;2024-03-06T01:59:19;6.00;99.90
59007;DHT22;44792;52.760;6.726;2024-03-06T02:01:46;6.00;99.90
59007;DHT22;44792;52.760;6.726;2024-03-06T02:04:12;6.00;99.90
59007;DHT22;44792;52.760;6.726;2024-03-06T02:06:39;5.90;99.90
59007;DHT22;44792;52.760;6.726;2024-03-06T02:09:05;5.90;99.90
59007;DHT22;44792;52.760;6.726;2024-03-06T02:11:32;5.90;99.90
59007;DHT22;44792;52.760;6.726;2024-03-06T02:13:58;6.00;99.90
59007;DHT22;44792;52.760;6.726;2024-03-06T02:16:24;5.90;99.90
59007;DHT22;44792;52.760;6.726;2024-03-06T02:18:54;5.90;99.90
59007;DHT22;44792;52.760;6.726;2024-03-06T02:21:21;6.00;99.90
59007;DHT22;44792;52.760;6.726;2024-03-06T02:23:47;5.90;99.90
59007;DHT22;44792;52.760;6.726;2024-03-06T02:26:14;6.00;99.90
59007;DHT22;44792;52.760;6.726;2024-03-06T02:28:45;5.90;99.90
59007;DHT22;44792;52.760;6.726;2024-03-06T02:31:11;6.00;99.90
59007;DHT22;44792;52.760;6.726;2024-03-06T02:33:37;6.00;99.90
59007;DHT22;44792;52.760;6.726;2024-03-06T02:36:03;5.90;99.90
59007;DHT22;44792;52.760;6.726;2024-03-06T02:38:28;6.00;99.90
59007;DHT22;44792;52.760;6.726;2024-03-06T02:40:54;6.00;99.90
59007;DHT22;44792;52.760;6.726;2024-03-06T02:43:20;5.90;99.90
59007;DHT22;44792;52.760;6.726;2024-03-06T02:45:45;5.90;99.90
59007;DHT22;44792;52.760;6.726;2024-03-06T02:48:11;5.90;99.90
59007;DHT22;44792;52.760;6.726;2024-03-06T02:50:37;5.90;99.90
59007;DHT22;44792;52.760;6.726;2024-03-06T02:53:02;5.90;99.90
59007;DHT22;44792;52.760;6.726;2024-03-06T02:55:28;5.80;99.90
59007;DHT22;44792;52.760;6.726;2024-03-06T02:57:54;5.90;99.90
59007;DHT22;44792;52.760;6.726;2024-03-06T03:00:19;5.90;99.90
59007;DHT22;44792;52.760;6.726;2024-03-06T03:02:45;6.00;99.90
59007;DHT22;44792;52.760;6.726;2024-03-06T03:05:11;5.90;99.90
59007;DHT22;44792;52.760;6.726;2024-03-06T03:07:37;6.00;99.90
59007;DHT22;44792;52.760;6.726;2024-03-06T03:10:03;5.90;99.90
59007;DHT22;44792;52.760;6.726;2024-03-06T03:12:30;5.90;99.90
59007;DHT22;44792;52.760;6.726;2024-03-06T03:14:55;5.90;99.90
59007;DHT22;44792;52.760;6.726;2024-03-06T03:17:21;5.90;99.90
59007;DHT22;44792;52.760;6.726;2024-03-06T03:19:47;5.90;99.90
59007;DHT22;44792;52.760;6.726;2024-03-06T03:22:12;5.90;99.90
59007;DHT22;44792;52.760;6.726;2024-03-06T03:24:41;5.90;99.90
59007;DHT22;44792;52.760;6.726;2024-03-06T03:27:06;5.90;99.90
59007;DHT22;44792;52.760;6.726;2024-03-06T03:29:33;5.90;99.90
59007;DHT22;44792;52.760;6.726;2024-03-06T03:31:58;5.90;99.90
59007;DHT22;44792;52.760;6.726;2024-03-06T03:34:24;5.90;99.90
59007;DHT22;44792;52.760;6.726;2024-03-06T03:36:50;5.90;99.90
59007;DHT22;44792;52.760;6.726;2024-03-06T03:39:16;5.90;99.90
59007;DHT22;44792;52.760;6.726;2024-03-06T03:41:44;5.90;99.90
59007;DHT22;44792;52.760;6.726;2024-03-06T03:44:15;6.00;99.90
59007;DHT22;44792;52.760;6.726;2024-03-06T03:46:40;5.90;99.90
59007;DHT22;44792;52.760;6.726;2024-03-06T03:49:06;5.90;99.90
59007;DHT22;44792;52.760;6.726;2024-03-06T03:51:32;6.00;99.90
59007;DHT22;44792;52.760;6.726;2024-03-06T03:53:58;6.00;99.90
59007;DHT22;44792;52.760;6.726;2024-03-06T03:56:24;6.00;99.90
59007;DHT22;44792;52.760;6.726;2024-03-06T03:58:49;5.90;99.90
59007;DHT22;44792;52.760;6.726;2024-03-06T04:01:15;6.00;99.90
59007;DHT22;44792;52.760;6.726;2024-03-06T04:03:40;6.00;99.90
59007;DHT22;44792;52.760;6.726;2024-03-06T04:06:08;6.00;99.90
59007;DHT22;44792;52.760;6.726;2024-03-06T04:08:36;6.00;99.90
59007;DHT22;44792;52.760;6.726;2024-03-06T04:11:06;6.00;99.90
59007;DHT22;44792;52.760;6.726;2024-03-06T04:13:36;6.00;99.90
59007;DHT22;44792;52.760;6.726;2024-03-06T04:16:03;6.00;99.90
59007;DHT22;44792;52.760;6.726;2024-03-06T04:18:30;6.00;99.90
59007;DHT22;44792;52.760;6.726;2024-03-06T04:21:05;6.00;99.90
59007;DHT22;44792;52.760;6.726;2024-03-06T04:23:31;6.00;99.90
59007;DHT22;44792;52.760;6.726;2024-03-06T04:25:57;6.00;99.90
59007;DHT22;44792;52.760;6.726;2024-03-06T04:28:23;5.90;99.90
59007;DHT22;44792;52.760;6.726;2024-03-06T04:30:48;5.90;99.90
59007;DHT22;44792;52.760;6.726;2024-03-06T04:33:14;5.90;99.90
59007;DHT22;44792;52.760;6.726;2024-03-06T04:35:41;5.90;99.90
59007;DHT22;44792;52.760;6.726;2024-03-06T04:38:07;6.00;99.90
59007;DHT22;44792;52.760;6.726;2024-03-06T04:40:33;6.00;99.90
59007;DHT22;44792;52.760;6.726;2024-03-06T04:43:02;5.90;99.90
59007;DHT22;44792;52.760;6.726;2024-03-06T04:45:28;5.90;99.90
59007;DHT22;44792;52.760;6.726;2024-03-06T04:47:54;5.90;99.90
59007;DHT22;44792;52.760;6.726;2024-03-06T04:50:20;5.90;99.90
59007;DHT22;44792;52.760;6.726;2024-03-06T04:52:46;6.00;99.90
59007;DHT22;44792;52.760;6.726;2024-03-06T04:55:12;5.90;99.90
59007;DHT22;44792;52.760;6.726;2024-03-06T04:57:41;5.90;99.90
59007;DHT22;44792;52.760;6.726;2024-03-06T05:00:08;5.90;99.90
59007;DHT22;44792;52.760;6.726;2024-03-06T05:02:34;5.90;99.90
59007;DHT22;44792;52.760;6.726;2024-03-06T05:05:02;5.90;99.90
59007;DHT22;44792;52.760;6.726;2024-03-06T05:07:29;5.90;99.90
59007;DHT22;44792;52.760;6.726;2024-03-06T05:09:55;5.90;99.90
59007;DHT22;44792;52.760;6.726;2024-03-06T05:12:21;5.90;99.90
59007;DHT22;44792;52.760;6.726;2024-03-06T05:14:47;5.90;99.90
59007;DHT22;44792;52.760;6.726;2024-03-06T05:17:12;5.90;99.90
59007;DHT22;44792;52.760;6.726;2024-03-06T05:19:38;5.90;99.90
59007;DHT22;44792;52.760;6.726;2024-03-06T05:22:04;5.90;99.90
59007;DHT22;44792;52.760;6.726;2024-03-06T05:24:31;5.90;99.90
59007;DHT22;44792;52.760;6.726;2024-03-06T05:26:56;5.90;99.90
59007;DHT22;44792;52.760;6.726;2024-03-06T05:29:22;5.90;99.90
59007;DHT22;44792;52.760;6.726;2024-03-06T05:31:48;5.90;99.90
59007;DHT22;44792;52.760;6.726;2024-03-06T05:34:16;5.90;99.90
59007;DHT22;44792;52.760;6.726;2024-03-06T05:36:43;5.90;99.90
59007;DHT22;44792;52.760;6.726;2024-03-06T05:39:08;6.00;99.90
59007;DHT22;44792;52.760;6.726;2024-03-06T05:41:38;5.90;99.90
59007;DHT22;44792;52.760;6.726;2024-03-06T05:44:08;5.90;99.90
59007;DHT22;44792;52.760;6.726;2024-03-06T05:46:34;5.90;99.90
59007;DHT22;44792;52.760;6.726;2024-03-06T05:49:00;5.90;99.90
59007;DHT22;44792;52.760;6.726;2024-03-06T05:51:26;5.90;99.90
59007;DHT22;44792;52.760;6.726;2024-03-06T05:53:53;5.90;99.90
59007;DHT22;44792;52.760;6.726;2024-03-06T05:56:19;5.80;99.90
59007;DHT22;44792;52.760;6.726;2024-03-06T05:58:44;5.90;99.90
59007;DHT22;44792;52.760;6.726;2024-03-06T06:01:15;5.90;99.90
59007;DHT22;44792;52.760;6.726;2024-03-06T06:03:41;6.00;99.90
59007;DHT22;44792;52.760;6.726;2024-03-06T06:06:07;6.00;99.90
59007;DHT22;44792;52.760;6.726;2024-03-06T06:08:36;6.00;99.90
59007;DHT22;44792;52.760;6.726;2024-03-06T06:11:04;6.00;99.90
59007;DHT22;44792;52.760;6.726;2024-03-06T06:13:30;6.00;99.90
59007;DHT22;44792;52.760;6.726;2024-03-06T06:15:58;6.00;99.90
59007;DHT22;44792;52.760;6.726;2024-03-06T06:18:24;6.00;99.90
59007;DHT22;44792;52.760;6.726;2024-03-06T06:20:49;6.00;99.90
59007;DHT22;44792;52.760;6.726;2024-03-06T06:23:15;6.00;99.90
59007;DHT22;44792;52.760;6.726;2024-03-06T06:25:41;6.10;99.90
59007;DHT22;44792;52.760;6.726;2024-03-06T06:28:06;6.00;99.90
59007;DHT22;44792;52.760;6.726;2024-03-06T06:30:32;6.00;99.90
59007;DHT22;44792;52.760;6.726;2024-03-06T06:32:58;6.00;99.90
59007;DHT22;44792;52.760;6.726;2024-03-06T06:35:23;6.00;99.90
59007;DHT22;44792;52.760;6.726;2024-03-06T06:37:50;6.10;99.90
59007;DHT22;44792;52.760;6.726;2024-03-06T06:40:16;6.00;99.90
59007;DHT22;44792;52.760;6.726;2024-03-06T06:42:45;6.00;99.90
59007;DHT22;44792;52.760;6.726;2024-03-06T06:45:18;6.00;99.90
59007;DHT22;44792;52.760;6.726;2024-03-06T06:47:45;6.00;99.90
59007;DHT22;44792;52.760;6.726;2024-03-06T06:50:11;6.00;99.90
59007;DHT22;44792;52.760;6.726;2024-03-06T06:52:40;6.00;99.90
59007;DHT22;44792;52.760;6.726;2024-03-06T06:55:06;6.00;99.90
59007;DHT22;44792;52.760;6.726;2024-03-06T06:57:32;6.00;99.90
59007;DHT22;44792;52.760;6.726;2024-03-06T06:59:59;6.00;99.90
59007;DHT22;44792;52.760;6.726;2024-03-06T07:02:25;5.90;99.90
59007;DHT22;44792;52.760;6.726;2024-03-06T07:04:51;6.00;99.90
59007;DHT22;44792;52.760;6.726;2024-03-06T07:07:17;6.00;99.90
59007;DHT22;44792;52.760;6.726;2024-03-06T07:09:46;6.00;99.90
59007;DHT22;44792;52.760;6.726;2024-03-06T07:12:12;6.00;99.90
59007;DHT22;44792;52.760;6.726;2024-03-06T07:14:38;6.00;99.90
59007;DHT22;44792;52.760;6.726;2024-03-06T07:17:03;5.90;99.90
59007;DHT22;44792;52.760;6.726;2024-03-06T07:19:29;6.00;99.90
59007;DHT22;44792;52.760;6.726;2024-03-06T07:21:55;6.00;99.90
59007;DHT22;44792;52.760;6.726;2024-03-06T07:24:20;6.10;99.90
59007;DHT22;44792;52.760;6.726;2024-03-06T07:26:46;6.10;99.90
59007;DHT22;44792;52.760;6.726;2024-03-06T07:29:15;6.10;99.90
59007;DHT22;44792;52.760;6.726;2024-03-06T07:31:41;6.10;99.90
59007;DHT22;44792;52.760;6.726;2024-03-06T07:34:10;6.00;99.90
59007;DHT22;44792;52.760;6.726;2024-03-06T07:36:36;6.00;99.90
59007;DHT22;44792;52.760;6.726;2024-03-06T07:39:02;6.00;99.90
59007;DHT22;44792;52.760;6.726;2024-03-06T07:41:28;6.00;99.90
59007;DHT22;44792;52.760;6.726;2024-03-06T07:43:54;6.00;99.90
59007;DHT22;44792;52.760;6.726;2024-03-06T07:46:20;6.00;99.90
59007;DHT22;44792;52.760;6.726;2024-03-06T07:48:45;6.00;99.90
59007;DHT22;44792;52.760;6.726;2024-03-06T07:51:11;6.00;99.90
59007;DHT22;44792;52.760;6.726;2024-03-06T07:53:37;6.10;99.90
59007;DHT22;44792;52.760;6.726;2024-03-06T07:56:03;6.10;99.90
59007;DHT22;44792;52.760;6.726;2024-03-06T07:58:29;6.10;99.90
59007;DHT22;44792;52.760;6.726;2024-03-06T08:00:55;6.10;99.90
59007;DHT22;44792;52.760;6.726;2024-03-06T08:03:24;6.00;99.90
59007;DHT22;44792;52.760;6.726;2024-03-06T08:05:52;6.00;99.90
59007;DHT22;44792;52.760;6.726;2024-03-06T08:08:21;6.00;99.90
59007;DHT22;44792;52.760;6.726;2024-03-06T08:10:46;6.10;99.90
59007;DHT22;44792;52.760;6.726;2024-03-06T08:13:13;6.10;99.90
59007;DHT22;44792;52.760;6.726;2024-03-06T08:15:39;6.10;99.90
59007;DHT22;44792;52.760;6.726;2024-03-06T08:18:06;6.20;99.90
59007;DHT22;44792;52.760;6.726;2024-03-06T08:20:32;6.20;99.90
59007;DHT22;44792;52.760;6.726;2024-03-06T08:22:58;6.20;99.90
59007;DHT22;44792;52.760;6.726;2024-03-06T08:25:27;6.30;99.90
59007;DHT22;44792;52.760;6.726;2024-03-06T08:27:52;6.30;99.90
59007;DHT22;44792;52.760;6.726;2024-03-06T08:30:18;6.30;99.90
59007;DHT22;44792;52.760;6.726;2024-03-06T08:32:44;6.30;99.90
59007;DHT22;44792;52.760;6.726;2024-03-06T08:35:13;6.30;99.90
59007;DHT22;44792;52.760;6.726;2024-03-06T08:37:39;6.30;99.90
59007;DHT22;44792;52.760;6.726;2024-03-06T08:40:06;6.40;99.90
59007;DHT22;44792;52.760;6.726;2024-03-06T08:42:40;6.30;99.90
59007;DHT22;44792;52.760;6.726;2024-03-06T08:45:07;6.30;99.90
59007;DHT22;44792;52.760;6.726;2024-03-06T08:47:34;6.30;99.90
59007;DHT22;44792;52.760;6.726;2024-03-06T08:49:59;6.20;99.90
59007;DHT22;44792;52.760;6.726;2024-03-06T08:52:25;6.10;99.90
59007;DHT22;44792;52.760;6.726;2024-03-06T08:54:51;6.20;99.90
59007;DHT22;44792;52.760;6.726;2024-03-06T08:57:17;6.10;99.90
59007;DHT22;44792;52.760;6.726;2024-03-06T08:59:42;6.10;99.90
59007;DHT22;44792;52.760;6.726;2024-03-06T09:02:17;6.10;99.90
59007;DHT22;44792;52.760;6.726;2024-03-06T09:04:44;6.10;99.90
59007;DHT22;44792;52.760;6.726;2024-03-06T09:07:10;6.10;99.90
59007;DHT22;44792;52.760;6.726;2024-03-06T09:09:37;6.10;99.90
59007;DHT22;44792;52.760;6.726;2024-03-06T09:12:04;6.10;99.90
59007;DHT22;44792;52.760;6.726;2024-03-06T09:14:32;6.10;99.90
59007;DHT22;44792;52.760;6.726;2024-03-06T09:16:58;6.10;99.90
59007;DHT22;44792;52.760;6.726;2024-03-06T09:19:26;6.20;99.90
59007;DHT22;44792;52.760;6.726;2024-03-06T09:21:52;6.30;99.90
59007;DHT22;44792;52.760;6.726;2024-03-06T09:24:20;6.40;99.90
59007;DHT22;44792;52.760;6.726;2024-03-06T09:26:47;6.30;99.90
59007;DHT22;44792;52.760;6.726;2024-03-06T09:29:13;6.30;99.90
59007;DHT22;44792;52.760;6.726;2024-03-06T09:31:38;6.30;99.90
59007;DHT22;44792;52.760;6.726;2024-03-06T09:34:04;6.30;99.90
59007;DHT22;44792;52.760;6.726;2024-03-06T09:36:30;6.30;99.90
59007;DHT22;44792;52.760;6.726;2024-03-06T09:38:58;6.30;99.90
59007;DHT22;44792;52.760;6.726;2024-03-06T09:41:24;6.40;99.90
59007;DHT22;44792;52.760;6.726;2024-03-06T09:43:50;6.40;99.90
59007;DHT22;44792;52.760;6.726;2024-03-06T09:46:17;6.50;99.90
59007;DHT22;44792;52.760;6.726;2024-03-06T09:48:47;6.40;99.90
59007;DHT22;44792;52.760;6.726;2024-03-06T09:51:14;6.50;99.90
59007;DHT22;44792;52.760;6.726;2024-03-06T09:53:41;6.50;99.90
59007;DHT22;44792;52.760;6.726;2024-03-06T09:56:09;6.50;99.90
59007;DHT22;44792;52.760;6.726;2024-03-06T09:58:37;6.50;99.90
59007;DHT22;44792;52.760;6.726;2024-03-06T10:01:05;6.60;99.90
59007;DHT22;44792;52.760;6.726;2024-03-06T10:03:33;6.70;99.90
59007;DHT22;44792;52.760;6.726;2024-03-06T10:06:00;6.70;99.90
59007;DHT22;44792;52.760;6.726;2024-03-06T10:08:25;6.70;99.90
59007;DHT22;44792;52.760;6.726;2024-03-06T10:10:52;6.70;99.90
59007;DHT22;44792;52.760;6.726;2024-03-06T10:13:18;6.70;99.90
59007;DHT22;44792;52.760;6.726;2024-03-06T10:16:00;6.70;99.90
59007;DHT22;44792;52.760;6.726;2024-03-06T10:18:30;6.80;99.90
59007;DHT22;44792;52.760;6.726;2024-03-06T10:20:57;6.80;99.90
59007;DHT22;44792;52.760;6.726;2024-03-06T10:23:26;6.80;99.90
59007;DHT22;44792;52.760;6.726;2024-03-06T10:25:55;6.90;99.90
59007;DHT22;44792;52.760;6.726;2024-03-06T10:28:22;6.90;99.90
59007;DHT22;44792;52.760;6.726;2024-03-06T10:30:50;6.90;99.90
59007;DHT22;44792;52.760;6.726;2024-03-06T10:33:17;7.00;99.90
59007;DHT22;44792;52.760;6.726;2024-03-06T10:35:47;7.00;99.90
59007;DHT22;44792;52.760;6.726;2024-03-06T10:38:16;7.00;99.90
59007;DHT22;44792;52.760;6.726;2024-03-06T10:40:44;6.90;99.90
59007;DHT22;44792;52.760;6.726;2024-03-06T10:43:11;6.90;99.90
59007;DHT22;44792;52.760;6.726;2024-03-06T10:48:13;7.10;99.90
59007;DHT22;44792;52.760;6.726;2024-03-06T10:50:40;7.20;99.90
59007;DHT22;44792;52.760;6.726;2024-03-06T10:53:13;7.10;99.90
59007;DHT22;44792;52.760;6.726;2024-03-06T10:55:40;7.00;99.90
59007;DHT22;44792;52.760;6.726;2024-03-06T10:58:08;7.10;99.90
59007;DHT22;44792;52.760;6.726;2024-03-06T11:00:40;7.00;99.90
59007;DHT22;44792;52.760;6.726;2024-03-06T11:03:06;7.10;99.90
59007;DHT22;44792;52.760;6.726;2024-03-06T11:05:38;7.10;99.90
59007;DHT22;44792;52.760;6.726;2024-03-06T11:08:15;7.20;99.90
59007;DHT22;44792;52.760;6.726;2024-03-06T11:10:42;7.20;99.90
59007;DHT22;44792;52.760;6.726;2024-03-06T11:13:30;7.20;99.90
59007;DHT22;44792;52.760;6.726;2024-03-06T11:15:58;7.20;99.90
59007;DHT22;44792;52.760;6.726;2024-03-06T11:26:55;7.30;99.90
59007;DHT22;44792;52.760;6.726;2024-03-06T11:29:22;7.40;99.90
59007;DHT22;44792;52.760;6.726;2024-03-06T11:32:06;7.40;99.90
59007;DHT22;44792;52.760;6.726;2024-03-06T11:34:36;7.40;99.90
59007;DHT22;44792;52.760;6.726;2024-03-06T11:37:07;7.50;99.90
59007;DHT22;44792;52.760;6.726;2024-03-06T11:39:36;7.50;99.90
59007;DHT22;44792;52.760;6.726;2024-03-06T11:42:02;7.50;99.90
59007;DHT22;44792;52.760;6.726;2024-03-06T11:44:31;7.60;99.90
59007;DHT22;44792;52.760;6.726;2024-03-06T11:47:01;7.60;99.90
59007;DHT22;44792;52.760;6.726;2024-03-06T11:49:28;7.60;99.90
59007;DHT22;44792;52.760;6.726;2024-03-06T11:51:56;7.60;99.90
59007;DHT22;44792;52.760;6.726;2024-03-06T11:54:23;7.70;99.90
59007;DHT22;44792;52.760;6.726;2024-03-06T11:56:53;7.70;99.90
59007;DHT22;44792;52.760;6.726;2024-03-06T12:02:03;7.70;99.90
59007;DHT22;44792;52.760;6.726;2024-03-06T12:04:34;7.70;99.90
59007;DHT22;44792;52.760;6.726;2024-03-06T12:07:01;7.80;99.90
59007;DHT22;44792;52.760;6.726;2024-03-06T12:09:38;7.80;99.90
59007;DHT22;44792;52.760;6.726;2024-03-06T12:12:05;7.90;99.90
59007;DHT22;44792;52.760;6.726;2024-03-06T12:14:35;8.00;99.90
59007;DHT22;44792;52.760;6.726;2024-03-06T12:17:01;8.00;99.90
59007;DHT22;44792;52.760;6.726;2024-03-06T12:19:35;8.00;99.90
59007;DHT22;44792;52.760;6.726;2024-03-06T12:22:04;7.90;99.90
59007;DHT22;44792;52.760;6.726;2024-03-06T12:24:33;8.10;99.90
59007;DHT22;44792;52.760;6.726;2024-03-06T12:27:01;8.10;99.90
59007;DHT22;44792;52.760;6.726;2024-03-06T12:29:29;8.60;99.90
59007;DHT22;44792;52.760;6.726;2024-03-06T12:32:02;8.50;99.90
59007;DHT22;44792;52.760;6.726;2024-03-06T12:34:28;8.50;99.90
59007;DHT22;44792;52.760;6.726;2024-03-06T12:36:55;8.50;99.90
59007;DHT22;44792;52.760;6.726;2024-03-06T12:39:23;8.50;99.90
59007;DHT22;44792;52.760;6.726;2024-03-06T12:41:50;8.50;99.90
59007;DHT22;44792;52.760;6.726;2024-03-06T12:44:16;8.50;99.90
59007;DHT22;44792;52.760;6.726;2024-03-06T12:46:42;8.50;99.90
59007;DHT22;44792;52.760;6.726;2024-03-06T12:49:07;8.40;99.90
59007;DHT22;44792;52.760;6.726;2024-03-06T12:51:33;8.50;99.90
59007;DHT22;44792;52.760;6.726;2024-03-06T12:54:01;8.50;99.90
59007;DHT22;44792;52.760;6.726;2024-03-06T12:56:27;8.60;99.90
59007;DHT22;44792;52.760;6.726;2024-03-06T12:58:52;8.60;99.90
59007;DHT22;44792;52.760;6.726;2024-03-06T13:01:18;8.60;99.90
59007;DHT22;44792;52.760;6.726;2024-03-06T13:03:45;8.60;99.90
59007;DHT22;44792;52.760;6.726;2024-03-06T13:06:11;8.60;99.90
59007;DHT22;44792;52.760;6.726;2024-03-06T13:08:37;8.60;99.90
59007;DHT22;44792;52.760;6.726;2024-03-06T13:11:02;8.70;99.90
59007;DHT22;44792;52.760;6.726;2024-03-06T13:13:28;8.70;99.90
59007;DHT22;44792;52.760;6.726;2024-03-06T13:15:56;8.70;99.90
59007;DHT22;44792;52.760;6.726;2024-03-06T13:18:22;8.70;99.90
59007;DHT22;44792;52.760;6.726;2024-03-06T13:20:48;8.70;99.90
59007;DHT22;44792;52.760;6.726;2024-03-06T13:23:17;8.80;99.90
59007;DHT22;44792;52.760;6.726;2024-03-06T13:25:43;8.80;99.90
59007;DHT22;44792;52.760;6.726;2024-03-06T13:28:11;8.80;99.90
59007;DHT22;44792;52.760;6.726;2024-03-06T13:30:37;8.80;99.90
59007;DHT22;44792;52.760;6.726;2024-03-06T13:33:05;8.80;99.90
59007;DHT22;44792;52.760;6.726;2024-03-06T13:35:31;8.90;99.90
59007;DHT22;44792;52.760;6.726;2024-03-06T13:37:56;8.80;99.90
59007;DHT22;44792;52.760;6.726;2024-03-06T13:40:22;8.90;99.90
59007;DHT22;44792;52.760;6.726;2024-03-06T13:42:48;8.80;99.90
59007;DHT22;44792;52.760;6.726;2024-03-06T13:45:14;8.90;99.90
59007;DHT22;44792;52.760;6.726;2024-03-06T13:47:43;8.90;99.90
59007;DHT22;44792;52.760;6.726;2024-03-06T13:50:15;8.80;99.90
59007;DHT22;44792;52.760;6.726;2024-03-06T13:52:42;8.90;99.90
59007;DHT22;44792;52.760;6.726;2024-03-06T13:55:08;9.00;99.90
59007;DHT22;44792;52.760;6.726;2024-03-06T13:57:35;9.00;99.90
59007;DHT22;44792;52.760;6.726;2024-03-06T14:00:03;9.00;99.90
59007;DHT22;44792;52.760;6.726;2024-03-06T14:02:31;9.10;99.90
59007;DHT22;44792;52.760;6.726;2024-03-06T14:04:56;9.10;99.90
59007;DHT22;44792;52.760;6.726;2024-03-06T14:07:22;9.10;99.90
59007;DHT22;44792;52.760;6.726;2024-03-06T14:09:49;9.10;99.90
59007;DHT22;44792;52.760;6.726;2024-03-06T14:12:16;9.10;99.90
59007;DHT22;44792;52.760;6.726;2024-03-06T14:14:41;9.10;99.90
59007;DHT22;44792;52.760;6.726;2024-03-06T14:17:07;9.10;99.90
59007;DHT22;44792;52.760;6.726;2024-03-06T14:19:33;9.20;99.90
59007;DHT22;44792;52.760;6.726;2024-03-06T14:21:59;9.20;99.90
59007;DHT22;44792;52.760;6.726;2024-03-06T14:24:24;9.20;99.90
59007;DHT22;44792;52.760;6.726;2024-03-06T14:26:50;9.20;99.90
59007;DHT22;44792;52.760;6.726;2024-03-06T14:29:16;9.20;99.90
59007;DHT22;44792;52.760;6.726;2024-03-06T14:31:41;9.20;99.90
59007;DHT22;44792;52.760;6.726;2024-03-06T14:34:07;9.20;99.90
59007;DHT22;44792;52.760;6.726;2024-03-06T14:36:33;9.20;99.90
59007;DHT22;44792;52.760;6.726;2024-03-06T14:39:00;9.20;99.90
59007;DHT22;44792;52.760;6.726;2024-03-06T14:41:25;9.20;99.90
59007;DHT22;44792;52.760;6.726;2024-03-06T14:43:51;9.20;99.90
59007;DHT22;44792;52.760;6.726;2024-03-06T14:46:17;9.10;99.90
59007;DHT22;44792;52.760;6.726;2024-03-06T14:48:46;9.20;99.90
59007;DHT22;44792;52.760;6.726;2024-03-06T14:51:12;9.30;99.90
59007;DHT22;44792;52.760;6.726;2024-03-06T14:53:39;9.20;99.90
59007;DHT22;44792;52.760;6.726;2024-03-06T14:56:05;9.30;99.90
59007;DHT22;44792;52.760;6.726;2024-03-06T14:58:30;9.30;99.90
59007;DHT22;44792;52.760;6.726;2024-03-06T15:00:56;9.20;99.90
59007;DHT22;44792;52.760;6.726;2024-03-06T15:03:22;9.30;99.90
59007;DHT22;44792;52.760;6.726;2024-03-06T15:05:47;9.50;99.90
59007;DHT22;44792;52.760;6.726;2024-03-06T15:08:13;9.40;99.90
59007;DHT22;44792;52.760;6.726;2024-03-06T15:10:39;9.40;99.90
59007;DHT22;44792;52.760;6.726;2024-03-06T15:13:05;9.40;99.90
59007;DHT22;44792;52.760;6.726;2024-03-06T15:15:31;9.40;99.90
59007;DHT22;44792;52.760;6.726;2024-03-06T15:17:57;9.30;99.90
59007;DHT22;44792;52.760;6.726;2024-03-06T15:20:23;9.40;99.90
59007;DHT22;44792;52.760;6.726;2024-03-06T15:22:49;9.40;99.90
59007;DHT22;44792;52.760;6.726;2024-03-06T15:25:15;9.40;99.90
59007;DHT22;44792;52.760;6.726;2024-03-06T15:27:42;9.50;99.90
59007;DHT22;44792;52.760;6.726;2024-03-06T15:30:09;9.40;99.90
59007;DHT22;44792;52.760;6.726;2024-03-06T15:32:35;9.40;99.90
59007;DHT22;44792;52.760;6.726;2024-03-06T15:35:01;9.30;99.90
59007;DHT22;44792;52.760;6.726;2024-03-06T15:37:29;9.30;99.90
59007;DHT22;44792;52.760;6.726;2024-03-06T15:39:55;9.30;99.90
59007;DHT22;44792;52.760;6.726;2024-03-06T15:42:22;9.30;99.90
59007;DHT22;44792;52.760;6.726;2024-03-06T15:44:48;9.30;99.90
59007;DHT22;44792;52.760;6.726;2024-03-06T15:47:16;9.30;99.90
59007;DHT22;44792;52.760;6.726;2024-03-06T15:49:42;9.30;99.90
59007;DHT22;44792;52.760;6.726;2024-03-06T15:52:10;9.30;99.90
59007;DHT22;44792;52.760;6.726;2024-03-06T15:54:36;9.30;99.90
59007;DHT22;44792;52.760;6.726;2024-03-06T15:57:03;9.30;99.90